createdAt,value
2023-03-03T00:00:34.717Z,6.40
2023-03-03T00:03:07.496Z,8.10
2023-03-03T00:05:36.904Z,6.80
2023-03-03T00:08:06.158Z,6.53
2023-03-03T00:10:34.304Z,6.53
2023-03-03T00:13:02.628Z,8.87
2023-03-03T00:15:32.496Z,8.17
2023-03-03T00:18:01.953Z,5.27
2023-03-03T00:20:37.951Z,7.67
2023-03-03T00:23:18.014Z,7.43
2023-03-03T00:25:47.259Z,7.87
2023-03-03T00:28:29.193Z,6.97
2023-03-03T00:31:00.668Z,8.50
2023-03-03T00:33:33.734Z,8.43
2023-03-03T00:36:28.814Z,4.87
2023-03-03T00:39:12.962Z,9.20
2023-03-03T00:41:43.646Z,6.77
2023-03-03T00:44:38.449Z,6.33
2023-03-03T00:47:24.918Z,5.80
2023-03-03T00:49:53.761Z,7.03
2023-03-03T00:52:27.786Z,7.57
2023-03-03T00:54:56.092Z,6.03
2023-03-03T00:57:28.168Z,6.50
2023-03-03T00:59:56.449Z,7.17
2023-03-03T01:02:24.728Z,7.53
2023-03-03T01:04:56.522Z,6.60
2023-03-03T01:07:26.307Z,7.10
2023-03-03T01:09:54.534Z,6.60
2023-03-03T01:12:23.103Z,8.37
2023-03-03T01:14:53.164Z,7.00
2023-03-03T01:17:21.528Z,6.23
2023-03-03T01:19:49.570Z,7.50
2023-03-03T01:22:17.793Z,7.57
2023-03-03T01:24:55.013Z,5.80
2023-03-03T01:27:25.256Z,7.63
2023-03-03T01:29:54.772Z,6.27
2023-03-03T01:32:22.874Z,6.60
2023-03-03T01:34:51.331Z,6.13
2023-03-03T01:37:20.453Z,8.13
2023-03-03T01:39:52.191Z,9.97
2023-03-03T01:42:20.760Z,5.97
2023-03-03T01:44:49.769Z,7.47
2023-03-03T01:47:21.021Z,9.33
2023-03-03T01:49:53.757Z,8.27
2023-03-03T01:52:28.043Z,7.30
2023-03-03T01:55:03.719Z,7.70
2023-03-03T01:57:37.817Z,7.07
2023-03-03T02:00:08.129Z,6.57
2023-03-03T02:02:37.438Z,7.50
2023-03-03T02:05:06.293Z,7.73
2023-03-03T02:07:35.038Z,6.43
2023-03-03T02:10:08.218Z,6.63
2023-03-03T02:12:40.008Z,6.50
2023-03-03T02:15:18.923Z,7.27
2023-03-03T02:17:48.232Z,8.30
2023-03-03T02:20:21.673Z,7.70
2023-03-03T02:22:56.638Z,7.50
2023-03-03T02:25:34.234Z,6.70
2023-03-03T02:28:04.632Z,7.57
2023-03-03T02:30:37.959Z,6.87
2023-03-03T02:33:07.250Z,6.97
2023-03-03T02:35:38.289Z,6.73
2023-03-03T02:38:20.403Z,7.07
2023-03-03T02:40:58.259Z,7.27
2023-03-03T02:43:34.489Z,9.13
2023-03-03T02:46:22.687Z,6.60
2023-03-03T02:48:50.978Z,7.00
2023-03-03T02:51:19.163Z,7.17
2023-03-03T02:53:47.571Z,9.07
2023-03-03T02:56:15.998Z,7.30
2023-03-03T02:58:48.915Z,7.47
2023-03-03T03:01:19.822Z,7.27
2023-03-03T03:03:48.171Z,7.37
2023-03-03T03:06:16.481Z,7.83
2023-03-03T03:08:44.684Z,7.47
2023-03-03T03:11:14.470Z,8.10
2023-03-03T03:13:42.570Z,8.47
2023-03-03T03:16:12.196Z,7.50
2023-03-03T03:18:40.338Z,7.90
2023-03-03T03:21:10.424Z,7.40
2023-03-03T03:23:38.929Z,7.50
2023-03-03T03:26:07.870Z,8.50
2023-03-03T03:28:36.440Z,7.53
2023-03-03T03:31:06.413Z,10.47
2023-03-03T03:33:36.430Z,9.67
2023-03-03T03:36:06.594Z,7.47
2023-03-03T03:38:36.673Z,8.77
2023-03-03T03:41:08.423Z,7.23
2023-03-03T03:43:37.201Z,8.27
2023-03-03T03:46:05.847Z,8.13
2023-03-03T03:48:36.303Z,8.83
2023-03-03T03:51:04.611Z,7.37
2023-03-03T03:53:33.171Z,7.27
2023-03-03T03:56:01.727Z,9.70
2023-03-03T03:58:29.842Z,8.50
2023-03-03T04:01:04.103Z,8.77
2023-03-03T04:03:33.589Z,7.33
2023-03-03T04:06:03.324Z,8.67
2023-03-03T04:08:31.657Z,10.27
2023-03-03T04:10:59.818Z,8.77
2023-03-03T04:13:29.251Z,9.13
2023-03-03T04:15:59.216Z,7.57
2023-03-03T04:18:27.378Z,9.10
2023-03-03T04:20:56.132Z,9.10
2023-03-03T04:23:26.096Z,8.97
2023-03-03T04:25:55.739Z,8.30
2023-03-03T04:28:25.391Z,10.00
2023-03-03T04:30:53.421Z,7.87
2023-03-03T04:33:21.946Z,8.30
2023-03-03T04:35:51.299Z,7.87
2023-03-03T04:38:20.012Z,7.60
2023-03-03T04:40:49.788Z,7.80
2023-03-03T04:43:18.002Z,7.93
2023-03-03T04:45:46.585Z,8.83
2023-03-03T04:48:14.827Z,8.90
2023-03-03T04:50:43.581Z,7.47
2023-03-03T04:53:12.389Z,8.47
2023-03-03T04:55:41.992Z,9.60
2023-03-03T04:58:12.455Z,9.80
2023-03-03T05:00:40.549Z,7.90
2023-03-03T05:03:09.580Z,8.63
2023-03-03T05:05:37.682Z,8.57
2023-03-03T05:08:06.251Z,7.40
2023-03-03T05:10:35.218Z,10.07
2023-03-03T05:13:03.650Z,8.90
2023-03-03T05:15:33.560Z,9.57
2023-03-03T05:18:01.596Z,9.20
2023-03-03T05:20:30.049Z,9.33
2023-03-03T05:22:59.885Z,10.47
2023-03-03T05:25:28.018Z,9.37
2023-03-03T05:27:56.067Z,9.10
2023-03-03T05:30:24.851Z,8.50
2023-03-03T05:32:54.609Z,9.13
2023-03-03T05:35:23.553Z,8.40
2023-03-03T05:37:52.818Z,9.17
2023-03-03T05:40:21.325Z,8.80
2023-03-03T05:42:49.807Z,7.87
2023-03-03T05:45:20.543Z,7.87
2023-03-03T05:47:49.315Z,7.23
2023-03-03T05:50:20.472Z,8.50
2023-03-03T05:52:50.144Z,8.63
2023-03-03T05:55:19.862Z,8.67
2023-03-03T05:57:51.150Z,9.40
2023-03-03T06:00:20.317Z,8.87
2023-03-03T06:02:48.778Z,8.97
2023-03-03T06:05:17.277Z,9.10
2023-03-03T06:07:47.985Z,9.40
2023-03-03T06:10:17.586Z,8.20
2023-03-03T06:12:46.314Z,9.50
2023-03-03T06:15:15.092Z,8.80
2023-03-03T06:17:43.899Z,10.30
2023-03-03T06:20:13.361Z,9.47
2023-03-03T06:22:42.055Z,10.00
2023-03-03T06:25:12.408Z,8.53
2023-03-03T06:27:41.225Z,9.77
2023-03-03T06:30:10.365Z,9.70
2023-03-03T06:32:39.126Z,9.60
2023-03-03T06:35:08.235Z,9.10
2023-03-03T06:37:36.979Z,7.80
2023-03-03T06:40:05.730Z,10.27
2023-03-03T06:42:37.060Z,8.03
2023-03-03T06:45:05.886Z,11.50
2023-03-03T06:47:34.036Z,11.07
2023-03-03T06:50:02.399Z,7.70
2023-03-03T06:52:30.565Z,9.90
2023-03-03T06:55:00.475Z,11.23
2023-03-03T06:57:30.737Z,10.37
2023-03-03T07:00:15.820Z,9.07
2023-03-03T07:02:44.498Z,8.37
2023-03-03T07:05:16.967Z,9.40
2023-03-03T07:07:45.468Z,10.03
2023-03-03T07:10:24.823Z,10.47
2023-03-03T07:12:53.566Z,9.10
2023-03-03T07:15:25.798Z,9.83
2023-03-03T07:17:59.771Z,9.67
2023-03-03T07:20:46.250Z,10.00
2023-03-03T07:23:25.370Z,9.13
2023-03-03T07:25:54.652Z,9.33
2023-03-03T07:28:25.944Z,9.00
2023-03-03T07:30:57.359Z,9.13
2023-03-03T07:33:28.491Z,9.87
2023-03-03T07:35:59.076Z,12.30
2023-03-03T07:38:32.872Z,9.27
2023-03-03T07:41:04.094Z,9.27
2023-03-03T07:43:37.114Z,9.93
2023-03-03T07:46:34.578Z,9.07
2023-03-03T07:49:21.560Z,9.17
2023-03-03T07:52:02.909Z,9.03
2023-03-03T07:54:45.927Z,9.80
2023-03-03T07:57:23.260Z,10.77
2023-03-03T07:59:52.466Z,10.07
2023-03-03T08:02:48.372Z,9.37
2023-03-03T08:05:37.889Z,10.30
2023-03-03T08:08:17.923Z,9.90
2023-03-03T08:10:49.263Z,9.30
2023-03-03T08:13:22.990Z,10.40
2023-03-03T08:15:53.299Z,12.07
2023-03-03T08:18:25.719Z,9.53
2023-03-03T08:20:54.920Z,10.57
2023-03-03T08:23:26.130Z,11.73
2023-03-03T08:25:55.147Z,9.77
2023-03-03T08:28:25.272Z,9.13
2023-03-03T08:31:08.884Z,10.00
2023-03-03T08:33:43.078Z,9.97
2023-03-03T08:36:13.272Z,10.23
2023-03-03T08:38:44.438Z,9.97
2023-03-03T08:41:16.393Z,11.50
2023-03-03T08:43:45.330Z,10.50
2023-03-03T08:46:14.332Z,11.33
2023-03-03T08:48:45.837Z,11.57
2023-03-03T08:51:21.769Z,9.77
2023-03-03T08:53:58.918Z,10.77
2023-03-03T08:56:27.881Z,11.47
2023-03-03T08:59:03.574Z,9.37
2023-03-03T09:01:32.809Z,11.77
2023-03-03T09:04:01.580Z,10.93
2023-03-03T09:06:32.073Z,11.90
2023-03-03T09:09:02.051Z,13.40
2023-03-03T09:11:36.426Z,11.63
2023-03-03T09:14:16.102Z,11.53
2023-03-03T09:16:50.267Z,11.40
2023-03-03T09:19:23.519Z,10.90
2023-03-03T09:21:54.815Z,11.43
2023-03-03T09:24:29.402Z,12.10
2023-03-03T09:26:59.305Z,11.13
2023-03-03T09:29:29.328Z,10.40
2023-03-03T09:31:59.133Z,10.77
2023-03-03T09:34:31.288Z,11.50
2023-03-03T09:37:17.465Z,10.53
2023-03-03T09:39:50.425Z,10.80
2023-03-03T09:42:37.327Z,11.30
2023-03-03T09:45:26.265Z,12.43
2023-03-03T09:48:11.507Z,12.30
2023-03-03T09:50:44.980Z,10.77
2023-03-03T09:53:20.423Z,10.87
2023-03-03T09:55:53.339Z,11.47
2023-03-03T09:58:29.810Z,10.83
2023-03-03T10:01:04.312Z,13.47
2023-03-03T10:03:46.843Z,12.00
2023-03-03T10:06:19.754Z,10.83
2023-03-03T10:08:55.622Z,10.97
2023-03-03T10:11:28.576Z,11.80
2023-03-03T10:14:11.733Z,11.70
2023-03-03T10:16:49.939Z,11.80
2023-03-03T10:19:29.204Z,13.70
2023-03-03T10:22:08.870Z,11.33
2023-03-03T10:24:42.092Z,11.83
2023-03-03T10:27:23.363Z,11.87
2023-03-03T10:29:59.592Z,12.03
2023-03-03T10:32:32.645Z,14.53
2023-03-03T10:35:20.702Z,11.80
2023-03-03T10:37:53.230Z,12.20
2023-03-03T10:40:25.958Z,11.70
2023-03-03T10:43:05.446Z,11.73
2023-03-03T10:45:47.946Z,13.80
2023-03-03T10:48:27.363Z,13.20
2023-03-03T10:50:59.458Z,12.53
2023-03-03T10:53:31.839Z,9.80
2023-03-03T10:56:11.528Z,13.50
2023-03-03T10:58:52.138Z,11.93
2023-03-03T11:01:27.301Z,13.20
2023-03-03T11:04:10.775Z,12.77
2023-03-03T11:09:42.684Z,12.37
2023-03-03T11:12:22.423Z,11.10
2023-03-03T11:14:57.973Z,12.40
2023-03-03T11:17:29.724Z,10.57
2023-03-03T11:20:04.903Z,12.83
2023-03-03T11:22:40.962Z,12.30
2023-03-03T11:25:25.812Z,11.83
2023-03-03T11:28:07.138Z,12.77
2023-03-03T11:30:56.505Z,13.67
2023-03-03T11:33:29.539Z,12.33
2023-03-03T11:36:10.638Z,11.83
2023-03-03T11:38:46.903Z,11.27
2023-03-03T11:41:20.538Z,11.70
2023-03-03T11:43:51.230Z,11.90
2023-03-03T11:46:21.828Z,13.87
2023-03-03T11:48:56.289Z,12.40
2023-03-03T11:51:36.058Z,12.67
2023-03-03T11:54:15.058Z,13.37
2023-03-03T11:56:44.553Z,13.20
2023-03-03T11:59:36.979Z,12.57
2023-03-03T12:02:19.507Z,13.63
2023-03-03T12:04:58.672Z,13.80
2023-03-03T12:07:29.945Z,12.13
2023-03-03T12:10:04.903Z,12.60
2023-03-03T12:12:35.533Z,11.90
2023-03-03T12:15:11.309Z,12.83
2023-03-03T12:17:45.512Z,12.20
2023-03-03T12:20:20.052Z,11.80
2023-03-03T12:23:06.747Z,14.67
2023-03-03T12:25:39.551Z,12.27
2023-03-03T12:28:12.128Z,12.73
2023-03-03T12:30:55.149Z,12.37
2023-03-03T12:33:28.914Z,12.73
2023-03-03T12:36:06.799Z,13.10
2023-03-03T12:38:43.220Z,13.40
2023-03-03T12:41:30.000Z,13.90
2023-03-03T12:44:07.896Z,11.60
2023-03-03T12:46:42.775Z,13.93
2023-03-03T12:49:11.329Z,12.67
2023-03-03T12:51:48.807Z,12.17
2023-03-03T12:54:28.018Z,12.37
2023-03-03T12:56:58.037Z,13.40
2023-03-03T12:59:32.581Z,11.03
2023-03-03T13:02:09.290Z,14.20
2023-03-03T13:04:40.670Z,12.37
2023-03-03T13:07:16.581Z,11.90
2023-03-03T13:09:54.114Z,12.50
2023-03-03T13:12:37.198Z,10.20
2023-03-03T13:15:10.563Z,13.20
2023-03-03T13:17:40.801Z,13.00
2023-03-03T13:20:22.278Z,11.57
2023-03-03T13:22:55.890Z,11.57
2023-03-03T13:25:36.684Z,11.47
2023-03-03T13:28:08.110Z,12.90
2023-03-03T13:30:40.395Z,11.33
2023-03-03T13:33:14.670Z,11.73
2023-03-03T13:35:44.325Z,13.10
2023-03-03T13:38:15.454Z,12.10
2023-03-03T13:40:45.800Z,13.17
2023-03-03T13:43:17.085Z,11.10
2023-03-03T13:45:52.006Z,13.00
2023-03-03T13:48:30.202Z,12.63
2023-03-03T13:51:00.046Z,12.03
2023-03-03T13:53:39.959Z,11.20
2023-03-03T13:56:16.928Z,13.80
2023-03-03T13:58:58.102Z,12.83
2023-03-03T14:01:30.831Z,13.27
2023-03-03T14:04:07.680Z,12.63
2023-03-03T14:06:38.754Z,11.27
2023-03-03T14:09:17.195Z,12.20
2023-03-03T14:11:49.059Z,12.70
2023-03-03T14:14:23.597Z,14.10
2023-03-03T14:16:53.868Z,12.40
2023-03-03T14:19:26.187Z,13.20
2023-03-03T14:22:01.588Z,13.00
2023-03-03T14:24:33.715Z,12.03
2023-03-03T14:27:11.827Z,13.53
2023-03-03T14:30:12.744Z,12.73
2023-03-03T14:32:53.898Z,12.63
2023-03-03T14:35:36.211Z,11.30
2023-03-03T14:38:06.481Z,11.03
2023-03-03T14:40:43.034Z,11.83
2023-03-03T14:43:22.613Z,13.80
2023-03-03T14:45:51.240Z,12.23
2023-03-03T14:48:20.945Z,14.83
2023-03-03T14:50:53.482Z,12.10
2023-03-03T14:53:33.079Z,12.90
2023-03-03T14:58:56.378Z,12.70
2023-03-03T15:01:30.742Z,10.90
2023-03-03T15:04:03.220Z,11.67
2023-03-03T15:06:38.873Z,11.53
2023-03-03T15:09:25.717Z,12.17
2023-03-03T15:11:54.953Z,11.80
2023-03-03T15:14:30.201Z,10.80
2023-03-03T15:17:00.289Z,13.30
2023-03-03T15:19:39.902Z,9.90
2023-03-03T15:22:14.724Z,12.23
2023-03-03T15:24:46.508Z,11.70
2023-03-03T15:27:20.577Z,10.60
2023-03-03T15:30:03.065Z,13.60
2023-03-03T15:32:35.250Z,12.03
2023-03-03T15:35:07.279Z,12.90
2023-03-03T15:37:45.202Z,12.03
2023-03-03T15:40:17.959Z,11.87
2023-03-03T15:42:50.192Z,11.70
2023-03-03T15:45:22.086Z,12.03
2023-03-03T15:51:27.705Z,10.93
2023-03-03T15:54:02.380Z,11.53
2023-03-03T15:56:33.838Z,11.87
2023-03-03T15:59:08.076Z,12.70
2023-03-03T16:01:37.662Z,12.37
2023-03-03T16:04:07.988Z,11.63
2023-03-03T16:06:42.904Z,12.20
2023-03-03T16:09:19.142Z,10.60
2023-03-03T16:11:50.270Z,11.90
2023-03-03T16:14:28.876Z,12.57
2023-03-03T16:17:00.434Z,11.70
2023-03-03T16:19:38.853Z,12.40
2023-03-03T16:22:18.084Z,10.67
2023-03-03T16:24:54.612Z,13.17
2023-03-03T16:27:26.653Z,12.13
2023-03-03T16:30:02.466Z,11.13
2023-03-03T16:32:36.421Z,12.97
2023-03-03T16:35:14.089Z,12.40
2023-03-03T16:37:49.420Z,13.10
2023-03-03T16:40:21.548Z,11.43
2023-03-03T16:42:52.486Z,12.30
2023-03-03T16:45:25.345Z,10.70
2023-03-03T16:48:05.327Z,11.10
2023-03-03T16:50:40.559Z,11.97
2023-03-03T16:53:17.011Z,11.60
2023-03-03T16:55:49.688Z,13.00
2023-03-03T16:58:24.840Z,10.80
2023-03-03T17:00:57.035Z,10.63
2023-03-03T17:03:30.086Z,12.30
2023-03-03T17:06:02.767Z,11.80
2023-03-03T17:08:56.351Z,11.80
2023-03-03T17:11:30.839Z,11.00
2023-03-03T17:14:26.004Z,11.90
2023-03-03T17:16:58.672Z,11.77
2023-03-03T17:19:33.673Z,12.10
2023-03-03T17:22:16.540Z,11.53
2023-03-03T17:25:00.753Z,12.40
2023-03-03T17:27:37.897Z,11.40
2023-03-03T17:30:16.655Z,11.80
2023-03-03T17:32:55.289Z,10.80
2023-03-03T17:35:34.684Z,11.40
2023-03-03T17:38:16.213Z,10.77
2023-03-03T17:40:57.355Z,13.20
2023-03-03T17:43:37.297Z,10.13
2023-03-03T17:46:19.124Z,13.80
2023-03-03T17:49:06.179Z,12.60
2023-03-03T17:51:53.762Z,11.50
2023-03-03T17:54:31.072Z,12.23
2023-03-03T17:57:18.090Z,11.30
2023-03-03T17:59:52.911Z,10.53
2023-03-03T18:02:42.212Z,10.90
2023-03-03T18:05:36.445Z,11.67
2023-03-03T18:08:15.184Z,10.33
2023-03-03T18:11:12.772Z,11.37
2023-03-03T18:14:02.759Z,10.67
2023-03-03T18:16:40.440Z,11.07
2023-03-03T18:19:24.281Z,11.80
2023-03-03T18:21:56.965Z,10.67
2023-03-03T18:24:30.887Z,10.80
2023-03-03T18:27:14.829Z,10.10
2023-03-03T18:30:03.328Z,10.87
2023-03-03T18:32:42.153Z,12.07
2023-03-03T18:35:31.973Z,10.77
2023-03-03T18:38:20.876Z,12.13
2023-03-03T18:40:52.991Z,11.63
2023-03-03T18:44:00.902Z,12.80
2023-03-03T18:47:01.961Z,11.80
2023-03-03T18:49:52.766Z,9.50
2023-03-03T18:52:28.471Z,12.40
2023-03-03T18:55:05.497Z,11.10
2023-03-03T18:57:34.665Z,11.43
2023-03-03T19:00:12.120Z,12.40
2023-03-03T19:02:49.696Z,12.40
2023-03-03T19:05:24.929Z,12.23
2023-03-03T19:07:59.239Z,12.83
2023-03-03T19:10:51.320Z,11.47
2023-03-03T19:13:42.653Z,10.97
2023-03-03T19:16:12.636Z,12.53
2023-03-03T19:19:05.635Z,11.27
2023-03-03T19:21:35.233Z,9.20
2023-03-03T19:24:27.803Z,12.00
2023-03-03T19:27:01.017Z,11.37
2023-03-03T19:29:51.186Z,9.40
2023-03-03T19:32:30.063Z,11.27
2023-03-03T19:35:28.050Z,10.30
2023-03-03T19:38:00.723Z,12.00
2023-03-03T19:40:34.284Z,11.80
2023-03-03T19:43:07.671Z,11.83
2023-03-03T19:45:55.472Z,12.30
2023-03-03T19:48:34.250Z,11.03
2023-03-03T19:51:07.160Z,11.17
2023-03-03T19:53:43.280Z,12.37
2023-03-03T19:56:27.885Z,10.40
2023-03-03T19:59:18.912Z,9.73
2023-03-03T20:01:55.818Z,11.70
2023-03-03T20:04:32.011Z,10.90
2023-03-03T20:07:11.165Z,11.40
2023-03-03T20:09:44.651Z,39.83
2023-03-03T20:12:22.878Z,10.90
2023-03-03T20:14:58.131Z,12.43
2023-03-03T20:17:45.778Z,14.90
2023-03-03T20:20:23.264Z,19.43
2023-03-03T20:22:56.861Z,36.33
2023-03-03T20:25:29.422Z,17.10
2023-03-03T20:28:03.514Z,29.90
2023-03-03T20:30:47.598Z,41.23
2023-03-03T20:33:27.770Z,69.60
2023-03-03T20:36:01.467Z,34.97
2023-03-03T20:38:33.008Z,62.60
2023-03-03T20:41:08.481Z,49.03
2023-03-03T20:43:43.552Z,16.23
2023-03-03T20:46:15.336Z,13.60
2023-03-03T20:48:59.496Z,17.27
2023-03-03T20:51:32.174Z,13.57
2023-03-03T20:54:05.176Z,12.87
2023-03-03T20:56:37.266Z,13.87
2023-03-03T20:59:16.104Z,11.57
2023-03-03T21:01:54.809Z,10.70
2023-03-03T21:04:25.400Z,10.20
2023-03-03T21:06:55.717Z,11.60
2023-03-03T21:09:25.505Z,11.17
2023-03-03T21:11:54.634Z,12.00
2023-03-03T21:14:24.623Z,11.60
2023-03-03T21:16:56.915Z,10.90
2023-03-03T21:19:26.854Z,10.73
2023-03-03T21:21:58.304Z,12.47
2023-03-03T21:24:43.630Z,12.87
2023-03-03T21:27:26.058Z,10.27
2023-03-03T21:30:04.066Z,10.93
2023-03-03T21:32:43.486Z,10.83
2023-03-03T21:35:15.008Z,11.03
2023-03-03T21:43:39.117Z,10.27
2023-03-03T21:46:09.281Z,10.97
2023-03-03T21:48:41.739Z,12.47
2023-03-03T21:51:12.371Z,10.17
2023-03-03T21:53:42.806Z,10.47
2023-03-03T21:56:11.581Z,12.03
2023-03-03T21:58:41.765Z,13.37
2023-03-03T22:01:10.947Z,12.80
2023-03-03T22:03:40.780Z,10.60
2023-03-03T22:06:09.543Z,10.27
2023-03-03T22:08:39.458Z,11.30
2023-03-03T22:11:10.028Z,10.20
2023-03-03T22:13:40.029Z,10.27
2023-03-03T22:16:09.646Z,10.57
2023-03-03T22:18:38.039Z,10.90
2023-03-03T22:21:08.866Z,9.87
2023-03-03T22:23:37.357Z,10.97
2023-03-03T22:26:06.844Z,11.70
2023-03-03T22:28:37.077Z,11.53
2023-03-03T22:31:05.781Z,11.80
2023-03-03T22:33:34.949Z,10.00
2023-03-03T22:36:03.545Z,11.37
2023-03-03T22:38:32.331Z,10.17
2023-03-03T22:41:01.733Z,12.37
2023-03-03T22:43:30.177Z,9.87
2023-03-03T22:46:00.365Z,10.23
2023-03-03T22:48:29.533Z,9.40
2023-03-03T22:50:59.849Z,11.07
2023-03-03T22:53:29.094Z,9.93
2023-03-03T22:55:57.900Z,11.20
2023-03-03T22:58:26.901Z,10.20
2023-03-03T23:00:56.169Z,10.20
2023-03-03T23:03:26.473Z,10.57
2023-03-03T23:05:55.859Z,12.40
2023-03-03T23:08:24.712Z,10.80
2023-03-03T23:10:53.176Z,9.60
2023-03-03T23:13:21.898Z,9.60
2023-03-03T23:15:58.641Z,11.20
2023-03-03T23:18:29.794Z,10.90
2023-03-03T23:20:58.478Z,11.93
2023-03-03T23:23:27.519Z,11.33
2023-03-03T23:25:56.303Z,10.43
2023-03-03T23:28:24.809Z,10.77
2023-03-03T23:30:53.775Z,10.50
2023-03-03T23:33:22.828Z,10.47
2023-03-03T23:35:53.137Z,11.33
2023-03-03T23:38:21.547Z,9.90
2023-03-03T23:40:50.098Z,11.40
2023-03-03T23:43:19.078Z,12.73
2023-03-03T23:45:47.997Z,11.00
2023-03-03T23:48:17.403Z,12.50
2023-03-03T23:50:46.235Z,12.23
2023-03-03T23:53:17.462Z,11.40
2023-03-03T23:55:47.827Z,9.47
2023-03-03T23:58:16.615Z,10.00
